Airfield :
LOGIN :

Register | Disclaimer

   EN    FR    IT 

 










Legend :    VFR   Marginal VFR   IFR   Intensive IFR   Very Intensive IFR
Visi :
Ceiling :
>= 8 km
>= 3000ft
5 to 8 km
1000 to 3000 ft
1500m to 5 km
500 to 1000 ft
800 to 1500m
200 to 500 ft
< 800m
< 200 ft
Symbols :   Thunderstorms  Fog  Heavy snow  Heavy precipitations  Wind > 20 kt
SIGMETs :     Misc.  Thunderstorms  Icing  Turbulence  Mountain Waves  Volcanic Ashes






- Airport Elevation : 489 ft
- IATA code : GDN


EPGD - Gdansk

CURRENT METAR :
  • 300400Z 13008KT 9999 BKN009 OVC031 M00/M02 Q1028

EXPIRED METARs :
  • 300330Z 13008KT 9000 SCT008 OVC016 M00/M02 Q1027
  • 300230Z 12008KT 9999 OVC016 M00/M02 Q1027
  • 300200Z 12008KT 9999 OVC015 M00/M02 Q1027
  • 300130Z 12008KT 9999 OVC014 M00/M02 Q1027
  • 300100Z 12008KT 9999 FEW012 OVC015 M00/M02 Q1027

TAF TAF EPGD
Valid from the 30 at 00:00 until the 01 at 00:00 UTC


292330Z 3000/3024 13008KT 9000 OVC009
TEMPO 3000/3009 4000 BR BKN004
PROB40 3003/3008 1500 BR
TEMPO 3011/3020 BKN016



MET'MAP, your aeronautical weather chart ! - Copyright ORBIFLY December 2007 - Disclaimer

ORBIFLY MET'MAP TEAM :

Programming & Development : Alexandra Zaïnal
Original concept : Baudouin d'Aumeries
Technical & hardware support : Manuel Goepfert
Assistance : Marc-Olivier Méhu




SOURCES & CREDITS :

   NOAA